Time;durP1;ratioP1;P1;durP2;ratioP2;P2;SDS_P1;SDS_P2;PMS_P1;PMS_P2;Temp;Humidity;BMP_temperature;BMP_pressure;BME280_temperature;BME280_humidity;BME280_pressure;Samples;Min_cycle;Max_cycle;Signal;HPM_P1;HPM_P2
2023/08/21 00:01:56;;;;;;;4.00;3.53;;;;;;;23.99;100.00;97851.03;5093074;28;20493;-72
2023/08/21 00:04:22;;;;;;;3.88;3.38;;;;;;;23.95;100.00;97845.50;5093124;28;20416;-73
2023/08/21 00:06:48;;;;;;;4.80;3.40;;;;;;;23.91;100.00;97850.75;5093097;28;20401;-73
2023/08/21 00:09:16;;;;;;;3.88;3.20;;;;;;;23.90;100.00;97851.91;5092913;28;20401;-72
2023/08/21 00:11:42;;;;;;;5.63;3.70;;;;;;;23.90;100.00;97853.81;5092954;28;20485;-72
2023/08/21 00:14:08;;;;;;;4.78;3.70;;;;;;;23.89;100.00;97853.03;5092933;28;20768;-72
2023/08/21 00:16:34;;;;;;;5.78;3.50;;;;;;;23.88;100.00;97858.75;5093033;28;20406;-72
2023/08/21 00:19:01;;;;;;;5.23;3.67;;;;;;;23.85;100.00;97846.66;5092944;28;20409;-73
2023/08/21 00:21:27;;;;;;;3.65;3.13;;;;;;;23.84;100.00;97850.47;5092641;28;20481;-72
2023/08/21 00:23:53;;;;;;;3.60;3.13;;;;;;;23.84;100.00;97850.47;5092666;28;20496;-72
2023/08/21 00:26:20;;;;;;;9.30;3.70;;;;;;;23.85;100.00;97848.56;5073919;28;20417;-73
2023/08/21 00:28:47;;;;;;;4.93;3.47;;;;;;;23.83;100.00;97848.13;5092720;28;20838;-73
2023/08/21 00:31:13;;;;;;;3.67;2.92;;;;;;;23.81;100.00;97843.03;5092564;28;20398;-73
2023/08/21 00:33:39;;;;;;;6.38;3.85;;;;;;;23.79;100.00;97842.56;5085699;28;20877;-72
2023/08/21 00:36:05;;;;;;;6.40;3.25;;;;;;;23.79;100.00;97847.19;5072245;28;20410;-72
2023/08/21 00:38:32;;;;;;;5.40;3.60;;;;;;;23.77;100.00;97841.28;5078151;28;20409;-73
2023/08/21 00:40:58;;;;;;;3.80;3.33;;;;;;;23.75;100.00;97843.56;5092179;28;20752;-73
2023/08/21 00:43:25;;;;;;;3.70;3.20;;;;;;;23.73;100.00;97837.66;5092359;28;20420;-73
2023/08/21 00:45:52;;;;;;;4.15;3.58;;;;;;;23.71;100.00;97832.59;5092253;28;20409;-73
2023/08/21 00:48:19;;;;;;;5.07;3.50;;;;;;;23.71;100.00;97835.28;5092342;28;20485;-73
2023/08/21 00:50:45;;;;;;;4.82;4.25;;;;;;;23.68;100.00;97832.47;5092115;28;20394;-72
2023/08/21 00:53:12;;;;;;;4.82;3.75;;;;;;;23.65;100.00;97830.38;5092073;28;20400;-73
2023/08/21 00:55:39;;;;;;;4.88;3.58;;;;;;;23.63;100.00;97827.22;5092102;28;20467;-72
2023/08/21 00:58:05;;;;;;;4.60;3.80;;;;;;;23.60;100.00;97825.97;5092023;28;20394;-73
2023/08/21 01:00:35;;;;;;;5.38;3.88;;;;;;;23.57;100.00;97825.81;5092039;28;21028;-73
2023/08/21 01:03:01;;;;;;;4.95;3.78;;;;;;;23.57;100.00;97823.09;5091955;28;20473;-73
2023/08/21 01:05:27;;;;;;;4.68;3.70;;;;;;;23.54;100.00;97822.63;5091945;28;20414;-73
2023/08/21 01:08:00;;;;;;;5.80;3.55;;;;;;;23.52;100.00;97826.78;5092132;28;20408;-73
2023/08/21 01:10:38;;;;;;;7.72;3.63;;;;;;;23.50;100.00;97823.63;5091964;28;20452;-72
2023/08/21 01:13:11;;;;;;;4.38;3.75;;;;;;;23.46;100.00;97820.72;5091942;28;20402;-73
2023/08/21 01:15:39;;;;;;;5.32;3.72;;;;;;;23.41;100.00;97823.63;5076980;28;20392;-73
2023/08/21 01:18:07;;;;;;;5.18;3.50;;;;;;;23.37;100.00;97825.38;5071643;28;21127;-73
2023/08/21 01:20:33;;;;;;;6.97;3.90;;;;;;;23.31;100.00;97826.66;5077364;28;20394;-73
2023/08/21 01:23:05;;;;;;;5.50;4.00;;;;;;;23.24;100.00;97829.06;5091746;28;20455;-73
2023/08/21 01:25:33;;;;;;;3.65;3.33;;;;;;;23.22;100.00;97819.72;5091609;28;20440;-73
2023/08/21 01:27:59;;;;;;;4.22;3.58;;;;;;;23.17;100.00;97829.56;5091735;28;20398;-73
2023/08/21 01:30:28;;;;;;;4.97;3.80;;;;;;;23.14;100.00;97832.13;5083217;28;20940;-73
2023/08/21 01:33:01;;;;;;;4.65;3.78;;;;;;;23.11;100.00;97832.75;5082516;28;20455;-73
2023/08/21 01:35:29;;;;;;;5.63;3.85;;;;;;;23.08;100.00;97833.41;5071386;28;20406;-73
2023/08/21 01:37:56;;;;;;;4.95;3.92;;;;;;;23.04;100.00;97830.56;5071133;28;20943;-73
2023/08/21 01:40:22;;;;;;;4.90;3.75;;;;;;;23.03;100.00;97826.25;5071177;28;20404;-73
2023/08/21 01:42:52;;;;;;;5.07;3.70;;;;;;;23.01;100.00;97828.47;5071009;28;20404;-73
2023/08/21 01:45:18;;;;;;;4.45;3.67;;;;;;;22.99;100.00;97824.53;5074902;28;20425;-73
2023/08/21 01:47:44;;;;;;;4.53;3.65;;;;;;;22.96;100.00;97823.25;5073153;28;20463;-73
2023/08/21 01:50:10;;;;;;;4.70;3.65;;;;;;;22.92;100.00;97818.84;5090966;28;20402;-73
2023/08/21 01:52:37;;;;;;;4.63;3.80;;;;;;;22.90;100.00;97821.06;5091114;28;20402;-73
2023/08/21 01:55:07;;;;;;;5.38;3.75;;;;;;;22.88;100.00;97818.66;5091059;28;20455;-73
2023/08/21 01:57:34;;;;;;;5.73;4.30;;;;;;;22.84;100.00;97815.03;5076561;28;20984;-73
2023/08/21 02:00:03;;;;;;;5.70;4.28;;;;;;;22.80;100.00;97810.56;5070171;28;20889;-73
2023/08/21 02:02:29;;;;;;;4.35;3.90;;;;;;;22.76;100.00;97816.63;5070633;28;20491;-73
2023/08/21 02:04:55;;;;;;;4.28;3.70;;;;;;;22.74;100.00;97821.53;5071130;28;20416;-72
2023/08/21 02:07:23;;;;;;;4.50;3.72;;;;;;;22.74;100.00;97818.84;5090179;28;20405;-73
2023/08/21 02:09:49;;;;;;;4.00;3.60;;;;;;;22.72;100.00;97809.44;5090766;28;20406;-73
2023/08/21 02:12:15;;;;;;;5.30;3.63;;;;;;;22.69;100.00;97816.28;5090785;28;20402;-73
2023/08/21 02:14:41;;;;;;;4.13;3.40;;;;;;;22.67;100.00;97817.72;5090727;28;20453;-73
2023/08/21 02:17:09;;;;;;;5.77;3.57;;;;;;;22.64;100.00;97818.34;5090635;28;20426;-73
2023/08/21 02:19:35;;;;;;;3.65;3.30;;;;;;;22.64;100.00;97819.13;5090686;28;20480;-73
2023/08/21 02:22:01;;;;;;;4.38;3.85;;;;;;;22.62;100.00;97820.59;5090425;28;20413;-73
2023/08/21 02:24:27;;;;;;;4.60;3.90;;;;;;;22.59;100.00;97821.19;5090679;28;20475;-73
2023/08/21 02:26:54;;;;;;;4.18;3.63;;;;;;;22.57;100.00;97815.31;5090563;28;20899;-73
2023/08/21 02:29:20;;;;;;;4.65;3.83;;;;;;;22.54;100.00;97819.47;5090316;28;20451;-73
2023/08/21 02:31:46;;;;;;;4.05;3.47;;;;;;;22.53;100.00;97815.19;5090702;28;20413;-73
2023/08/21 02:34:14;;;;;;;5.07;3.75;;;;;;;22.52;100.00;97819.00;5060851;28;20522;-73
2023/08/21 02:36:40;;;;;;;6.10;4.28;;;;;;;22.50;100.00;97818.50;5070268;28;20411;-72
2023/08/21 02:39:06;;;;;;;4.47;3.83;;;;;;;22.48;100.00;97819.94;5089178;28;20751;-73
2023/08/21 02:41:32;;;;;;;6.60;4.80;;;;;;;22.45;100.00;97817.88;5090124;28;20398;-73
2023/08/21 02:43:58;;;;;;;5.13;4.30;;;;;;;22.41;100.00;97823.09;5072306;28;20423;-73
2023/08/21 02:46:24;;;;;;;4.57;3.67;;;;;;;22.37;100.00;97830.25;5070284;28;20408;-72
2023/08/21 02:48:51;;;;;;;5.38;4.00;;;;;;;22.35;100.00;97822.47;5074701;28;20973;-73
2023/08/21 02:51:19;;;;;;;4.50;3.90;;;;;;;22.35;100.00;97829.75;5076738;28;20482;-73
2023/08/21 02:53:45;;;;;;;4.45;3.72;;;;;;;22.32;100.00;97825.81;5076857;28;20402;-72
2023/08/21 02:56:11;;;;;;;4.53;3.78;;;;;;;22.29;100.00;97825.63;5076625;28;20901;-73
2023/08/21 02:58:37;;;;;;;4.53;3.60;;;;;;;22.27;100.00;97825.16;5076802;28;20486;-73
2023/08/21 03:01:03;;;;;;;4.50;3.85;;;;;;;22.23;100.00;97833.09;5058435;28;20471;-73
2023/08/21 03:03:30;;;;;;;4.45;3.65;;;;;;;22.21;100.00;97831.81;5090457;28;20429;-73
2023/08/21 03:05:56;;;;;;;5.80;4.28;;;;;;;22.19;100.00;97825.94;5096833;28;20459;-73
2023/08/21 03:08:23;;;;;;;4.90;3.85;;;;;;;22.17;100.00;97823.56;5096940;28;20570;-73
2023/08/21 03:10:49;;;;;;;6.00;4.10;;;;;;;22.17;100.00;97822.78;5096639;28;20880;-73
2023/08/21 03:13:15;;;;;;;4.20;3.42;;;;;;;22.13;100.00;97825.31;5096789;28;20398;-73
2023/08/21 03:15:42;;;;;;;4.13;3.60;;;;;;;22.10;100.00;97820.56;5089521;28;20406;-72
2023/08/21 03:18:08;;;;;;;4.50;3.83;;;;;;;22.10;100.00;97825.16;5095781;28;20433;-72
2023/08/21 03:20:34;;;;;;;7.53;4.95;;;;;;;22.06;100.00;97824.97;5096634;28;20518;-73
2023/08/21 03:23:00;;;;;;;4.45;3.60;;;;;;;22.03;100.00;97827.53;5078446;28;20881;-73
2023/08/21 03:25:28;;;;;;;4.00;3.40;;;;;;;21.98;100.00;97823.84;5076419;28;20411;-72
2023/08/21 03:27:54;;;;;;;5.32;3.97;;;;;;;21.96;100.00;97822.53;5076438;28;20494;-73
2023/08/21 03:30:21;;;;;;;4.57;3.83;;;;;;;21.94;100.00;97820.19;5076353;28;20885;-72
2023/08/21 03:32:47;;;;;;;8.25;4.28;;;;;;;21.93;100.00;97828.56;5084412;28;20883;-73
2023/08/21 03:35:13;;;;;;;6.38;3.80;;;;;;;21.91;100.00;97820.78;5096730;28;20401;-73
2023/08/21 03:37:40;;;;;;;5.63;4.10;;;;;;;21.90;100.00;97824.59;5081313;28;20429;-72
2023/08/21 03:40:07;;;;;;;5.53;4.45;;;;;;;21.90;100.00;97829.19;5076172;28;20404;-72
2023/08/21 03:42:34;;;;;;;5.38;4.13;;;;;;;21.88;100.00;97832.19;5076265;28;20435;-72
2023/08/21 03:45:03;;;;;;;4.80;3.90;;;;;;;21.86;100.00;97830.94;5076191;28;20901;-72
2023/08/21 03:47:30;;;;;;;4.40;3.63;;;;;;;21.83;100.00;97829.66;5076209;28;20403;-72
2023/08/21 03:49:56;;;;;;;4.03;3.55;;;;;;;21.81;100.00;97831.06;5076008;28;20431;-72
2023/08/21 03:52:22;;;;;;;5.38;4.28;;;;;;;21.80;100.00;97827.56;5076128;28;20440;-72
2023/08/21 03:54:48;;;;;;;6.57;4.38;;;;;;;21.80;100.00;97835.66;5076261;28;21002;-72
2023/08/21 03:57:14;;;;;;;5.33;4.10;;;;;;;21.77;100.00;97838.97;5076038;28;20412;-73
2023/08/21 03:59:42;;;;;;;5.63;4.30;;;;;;;21.73;100.00;97838.00;5073438;28;20453;-73
2023/08/21 04:02:08;;;;;;;4.75;3.80;;;;;;;21.70;100.00;97840.53;5072798;28;20452;-73
2023/08/21 04:04:34;;;;;;;4.25;3.85;;;;;;;21.69;100.00;97844.34;5079122;28;20424;-72
2023/08/21 04:07:00;;;;;;;5.38;4.05;;;;;;;21.67;100.00;97843.84;5093125;28;20447;-73
2023/08/21 04:09:27;;;;;;;4.60;3.78;;;;;;;21.65;100.00;97844.19;5093156;28;20402;-72
2023/08/21 04:11:53;;;;;;;6.13;4.20;;;;;;;21.66;100.00;97850.34;5093344;28;20809;-73
2023/08/21 04:14:19;;;;;;;5.40;4.22;;;;;;;21.65;100.00;97857.66;5093143;28;20402;-73
2023/08/21 04:16:46;;;;;;;4.50;3.80;;;;;;;21.63;100.00;97852.56;5093008;28;20471;-73
2023/08/21 04:19:13;;;;;;;4.32;3.85;;;;;;;21.63;100.00;97857.16;5092905;28;20394;-73
2023/08/21 04:21:39;;;;;;;5.82;4.22;;;;;;;21.62;100.00;97861.75;5092654;28;20402;-73
2023/08/21 04:24:05;;;;;;;4.73;3.87;;;;;;;21.61;100.00;97856.66;5092838;28;20543;-73
2023/08/21 04:26:31;;;;;;;5.50;4.38;;;;;;;21.59;100.00;97856.97;5092861;28;20493;-73
2023/08/21 04:28:58;;;;;;;4.13;3.60;;;;;;;21.58;100.00;97860.78;5092875;28;20421;-73
2023/08/21 04:31:24;;;;;;;4.97;3.83;;;;;;;21.55;100.00;97869.50;5092377;28;20414;-73
2023/08/21 04:33:51;;;;;;;5.57;4.28;;;;;;;21.55;100.00;97872.19;5092700;28;20493;-73
2023/08/21 04:36:18;;;;;;;5.82;4.25;;;;;;;21.52;100.00;97872.78;5092631;28;20394;-73
2023/08/21 04:38:44;;;;;;;4.63;4.15;;;;;;;21.50;100.00;97874.22;5092543;28;20899;-73
2023/08/21 04:41:11;;;;;;;5.95;4.43;;;;;;;21.49;100.00;97867.25;5092233;28;20420;-73
2023/08/21 04:43:37;;;;;;;6.43;4.43;;;;;;;21.49;100.00;97859.16;5085894;28;20731;-73
2023/08/21 04:46:05;;;;;;;5.15;4.15;;;;;;;21.49;100.00;97859.16;5088750;28;20421;-73
2023/08/21 04:48:31;;;;;;;6.10;4.00;;;;;;;21.50;100.00;97863.44;5078008;28;20430;-73
2023/08/21 04:50:59;;;;;;;4.60;3.90;;;;;;;21.49;100.00;97865.34;5092072;28;20459;-73
2023/08/21 04:53:25;;;;;;;4.15;3.60;;;;;;;21.51;100.00;97867.72;5087460;28;20406;-73
2023/08/21 04:55:51;;;;;;;4.13;3.53;;;;;;;21.51;100.00;97865.00;5071921;28;20453;-73
2023/08/21 04:58:17;;;;;;;4.10;3.47;;;;;;;21.52;100.00;97863.91;5072058;28;20396;-73
2023/08/21 05:00:45;;;;;;;7.03;4.00;;;;;;;21.53;100.00;97860.91;5071743;28;20970;-73
2023/08/21 05:03:12;;;;;;;6.60;4.10;;;;;;;21.52;100.00;97862.03;5071730;28;20403;-73
2023/08/21 05:05:38;;;;;;;6.32;4.55;;;;;;;21.51;100.00;97865.00;5071755;28;20450;-73
2023/08/21 05:08:06;;;;;;;4.68;4.10;;;;;;;21.52;100.00;97867.41;5071776;28;20657;-73
2023/08/21 05:10:32;;;;;;;6.78;4.22;;;;;;;21.52;100.00;97875.50;5085318;28;20402;-73
2023/08/21 05:12:58;;;;;;;7.15;4.30;;;;;;;21.54;100.00;97872.50;5091338;28;20397;-74
2023/08/21 05:15:25;;;;;;;4.82;3.75;;;;;;;21.55;100.00;97877.56;5091765;28;21026;-73
2023/08/21 05:17:51;;;;;;;4.75;3.83;;;;;;;21.58;100.00;97874.25;5091700;28;20770;-73
2023/08/21 05:20:18;;;;;;;5.18;4.30;;;;;;;21.61;100.00;97873.63;5091639;28;20398;-73
2023/08/21 05:22:44;;;;;;;4.45;3.85;;;;;;;21.64;100.00;97880.31;5091663;28;20811;-73
2023/08/21 05:25:12;;;;;;;5.07;3.70;;;;;;;21.69;100.00;97882.06;5091658;28;20424;-73
2023/08/21 05:27:38;;;;;;;4.65;3.80;;;;;;;21.75;100.00;97883.50;5091865;28;20580;-73
2023/08/21 05:30:05;;;;;;;3.93;3.23;;;;;;;21.82;100.00;97883.84;5091331;28;20398;-73
2023/08/21 05:32:32;;;;;;;4.20;3.53;;;;;;;21.89;100.00;97887.69;5091495;28;20398;-73
2023/08/21 05:34:58;;;;;;;3.80;3.40;;;;;;;21.98;100.00;97885.84;5091610;28;20418;-73
2023/08/21 05:37:24;;;;;;;3.93;3.33;;;;;;;22.07;100.00;97893.16;5091558;28;20409;-73
2023/08/21 05:39:50;;;;;;;3.97;3.33;;;;;;;22.15;100.00;97893.19;5091273;28;20826;-73
2023/08/21 05:42:18;;;;;;;4.32;3.42;;;;;;;22.24;100.00;97894.03;5091375;28;20398;-73
2023/08/21 05:44:44;;;;;;;4.35;3.50;;;;;;;22.31;100.00;97894.34;5091105;28;20436;-73
2023/08/21 05:47:10;;;;;;;4.18;3.65;;;;;;;22.37;100.00;97895.78;5091250;28;20410;-73
2023/08/21 05:49:36;;;;;;;5.72;3.88;;;;;;;22.43;100.00;97888.31;5091169;28;20434;-73
2023/08/21 05:52:03;;;;;;;4.90;3.65;;;;;;;22.49;100.00;97894.34;5080974;28;20395;-73
2023/08/21 05:54:30;;;;;;;5.40;3.50;;;;;;;22.52;100.00;97893.75;5070889;28;20403;-73
2023/08/21 05:56:56;;;;;;;5.68;4.20;;;;;;;22.55;100.00;97902.00;5070714;28;20943;-73
2023/08/21 05:59:32;;;;;;;4.20;3.70;;;;;;;22.59;100.00;97892.16;5070778;28;20392;-73
2023/08/21 06:01:58;;;;;;;7.18;4.00;;;;;;;22.63;100.00;97895.81;5070816;28;20826;-73
2023/08/21 06:04:25;;;;;;;5.60;3.65;;;;;;;22.69;100.00;97897.25;5052702;28;20477;-73
2023/08/21 06:06:51;;;;;;;4.03;3.55;;;;;;;22.76;100.00;97894.91;5070505;28;20400;-73
2023/08/21 06:09:17;;;;;;;3.88;3.20;;;;;;;22.83;100.00;97899.81;5070544;28;20396;-73
2023/08/21 06:11:43;;;;;;;3.67;3.00;;;;;;;22.91;100.00;97899.03;5070555;28;20993;-73
2023/08/21 06:14:09;;;;;;;4.35;3.63;;;;;;;22.97;100.00;97895.06;5089761;28;20413;-73
2023/08/21 06:16:37;;;;;;;4.28;3.33;;;;;;;23.06;100.00;97906.66;5090725;28;20453;-73
2023/08/21 06:19:03;;;;;;;3.90;3.15;;;;;;;23.12;100.00;97899.16;5090586;28;20895;-73
2023/08/21 06:21:29;;;;;;;4.53;3.58;;;;;;;23.18;100.00;97903.28;5090478;28;20394;-73
2023/08/21 06:23:55;;;;;;;4.25;3.60;;;;;;;23.23;100.00;97905.81;5080829;28;20909;-73
2023/08/21 06:26:21;;;;;;;4.80;3.70;;;;;;;23.26;100.00;97912.50;5070458;28;20399;-73
2023/08/21 06:28:48;;;;;;;5.13;3.60;;;;;;;23.30;100.00;97903.44;5070416;28;20404;-73
2023/08/21 06:31:14;;;;;;;5.55;4.00;;;;;;;23.33;100.00;97910.09;5081742;28;20412;-73
2023/08/21 06:33:42;;;;;;;4.65;3.67;;;;;;;23.37;100.00;97911.06;5090218;28;20416;-73
2023/08/21 06:36:08;;;;;;;4.20;3.55;;;;;;;23.40;100.00;97905.00;5090499;28;20391;-73
2023/08/21 06:38:34;;;;;;;5.45;4.28;;;;;;;23.44;100.00;97908.66;5090703;28;20402;-73
2023/08/21 06:41:00;;;;;;;5.50;3.60;;;;;;;23.47;100.00;97903.38;5090087;28;20489;-73
2023/08/21 06:43:26;;;;;;;4.80;3.85;;;;;;;23.52;100.00;97908.66;5090610;28;20791;-73
2023/08/21 06:45:53;;;;;;;4.68;3.40;;;;;;;23.57;100.00;97910.38;5090540;28;20485;-73
2023/08/21 06:48:19;;;;;;;4.43;3.50;;;;;;;23.60;100.00;97914.38;5090606;28;20915;-73
2023/08/21 06:50:47;;;;;;;4.63;3.75;;;;;;;23.62;100.00;97912.13;5090515;28;20480;-73
2023/08/21 06:53:13;;;;;;;4.35;3.70;;;;;;;23.65;100.00;97916.88;5090255;28;20876;-73
2023/08/21 06:55:39;;;;;;;3.78;3.28;;;;;;;23.69;100.00;97923.22;5090332;28;20436;-73
2023/08/21 06:58:05;;;;;;;3.90;3.40;;;;;;;23.72;100.00;97917.19;5090221;28;20405;-73
2023/08/21 07:00:32;;;;;;;4.30;3.50;;;;;;;23.77;100.00;97917.00;5090164;28;20406;-73
2023/08/21 07:02:58;;;;;;;4.90;3.80;;;;;;;23.79;100.00;97920.97;5090236;28;20402;-73
2023/08/21 07:05:24;;;;;;;4.47;3.75;;;;;;;23.84;100.00;97926.19;5090222;28;20414;-73
2023/08/21 07:07:53;;;;;;;4.40;3.83;;;;;;;23.89;100.00;97919.81;5090294;28;20810;-74
2023/08/21 07:10:19;;;;;;;4.18;3.67;;;;;;;23.96;100.00;97924.72;5089964;28;20755;-73
2023/08/21 07:12:45;;;;;;;5.80;3.55;;;;;;;24.01;100.00;97924.53;5081760;28;20404;-73
2023/08/21 07:15:11;;;;;;;3.97;3.30;;;;;;;24.09;100.00;97918.28;5070411;28;20418;-73
2023/08/21 07:17:38;;;;;;;4.53;3.60;;;;;;;24.17;100.00;97918.25;5069752;28;20411;-73
2023/08/21 07:20:05;;;;;;;4.22;3.60;;;;;;;24.27;100.00;97917.94;5069567;28;20842;-73
2023/08/21 07:22:31;;;;;;;4.10;3.50;;;;;;;24.39;100.00;97921.81;5051768;28;20801;-73
2023/08/21 07:25:03;;;;;;;4.30;3.50;;;;;;;24.49;100.00;97927.66;5069690;28;20416;-73
2023/08/21 07:27:29;;;;;;;3.40;3.10;;;;;;;24.59;100.00;97929.16;5069808;28;20403;-73
2023/08/21 07:29:56;;;;;;;4.60;3.42;;;;;;;24.68;100.00;97929.91;5069630;28;20412;-73
2023/08/21 07:32:22;;;;;;;3.70;3.20;;;;;;;24.77;100.00;97936.06;5069585;28;20439;-73
2023/08/21 07:34:52;;;;;;;3.53;3.05;;;;;;;24.85;100.00;97934.41;5071829;28;20404;-73
2023/08/21 07:37:19;;;;;;;3.60;3.05;;;;;;;24.91;100.00;97933.13;5081975;28;20993;-73
2023/08/21 07:39:45;;;;;;;3.78;3.35;;;;;;;24.99;100.00;97929.53;5073145;28;20408;-73
2023/08/21 07:42:13;;;;;;;4.87;3.57;;;;;;;25.06;100.00;97933.31;5073077;28;20412;-73
2023/08/21 07:44:39;;;;;;;3.53;3.05;;;;;;;25.14;100.00;97930.84;5073461;28;20422;-73
2023/08/21 07:47:06;;;;;;;3.47;3.17;;;;;;;25.23;100.00;97929.66;5073171;28;20411;-73
2023/08/21 07:49:32;;;;;;;4.20;3.30;;;;;;;25.31;100.00;97930.69;5072996;28;20473;-74
2023/08/21 07:51:59;;;;;;;3.85;3.33;;;;;;;25.38;100.00;97928.25;5072702;28;20415;-73
2023/08/21 07:54:25;;;;;;;4.43;3.30;;;;;;;25.47;100.00;97934.38;5072873;28;20462;-73
2023/08/21 07:56:51;;;;;;;4.25;3.30;;;;;;;25.55;100.00;97933.50;5054738;28;20431;-72
2023/08/21 07:59:19;;;;;;;3.13;2.83;;;;;;;25.65;100.00;97938.50;5072832;28;20395;-73
2023/08/21 08:01:46;;;;;;;3.47;3.17;;;;;;;25.74;100.00;97938.41;5072834;28;20431;-73
2023/08/21 08:04:12;;;;;;;3.67;3.25;;;;;;;25.84;100.00;97938.00;5072761;28;20414;-73
2023/08/21 08:06:38;;;;;;;3.40;3.10;;;;;;;25.93;100.00;97937.88;5079375;28;20934;-73
2023/08/21 08:09:04;;;;;;;3.60;3.30;;;;;;;26.02;100.00;97936.63;5092909;28;20459;-73
2023/08/21 08:11:30;;;;;;;3.40;3.00;;;;;;;26.12;100.00;97938.91;5092694;28;20455;-73
2023/08/21 08:13:56;;;;;;;3.35;2.92;;;;;;;26.21;100.00;97936.88;5092823;28;20402;-73
2023/08/21 08:16:24;;;;;;;3.50;3.00;;;;;;;26.30;100.00;97939.50;5088271;28;20796;-73
2023/08/21 08:18:50;;;;;;;4.13;3.67;;;;;;;26.40;100.00;97932.81;5072558;28;20412;-73
2023/08/21 08:21:17;;;;;;;5.30;3.22;;;;;;;26.49;100.00;97937.00;5084285;28;20797;-73
2023/08/21 08:23:43;;;;;;;3.35;3.00;;;;;;;26.58;100.00;97939.59;5092757;28;20756;-74
2023/08/21 08:26:10;;;;;;;3.92;3.05;;;;;;;26.68;100.00;97939.13;5092555;28;20767;-73
2023/08/21 08:28:36;;;;;;;5.20;3.40;;;;;;;26.77;100.00;97937.06;5077898;28;20483;-74
2023/08/21 08:31:02;;;;;;;3.50;3.20;;;;;;;26.86;100.00;97935.00;5072008;28;20410;-73
2023/08/21 08:33:29;;;;;;;4.10;3.30;;;;;;;26.96;100.00;97940.00;5072157;28;21013;-73
2023/08/21 08:35:56;;;;;;;4.10;3.30;;;;;;;27.02;100.00;97942.47;5080293;28;20386;-73
2023/08/21 08:38:22;;;;;;;5.13;4.07;;;;;;;27.04;100.00;97932.03;5084784;28;20864;-73
2023/08/21 08:40:50;;;;;;;5.32;4.00;;;;;;;27.07;100.00;97934.84;5092030;28;20410;-73
2023/08/21 08:43:17;;;;;;;5.03;3.83;;;;;;;27.04;100.00;97943.72;5080420;28;20765;-73
2023/08/21 08:45:47;;;;;;;5.63;3.78;;;;;;;27.03;100.00;97939.41;5071393;28;20765;-73
2023/08/21 08:48:13;;;;;;;5.32;3.70;;;;;;;27.06;100.00;97937.94;5083368;28;20402;-73
2023/08/21 08:50:41;;;;;;;4.97;4.15;;;;;;;27.12;100.00;97934.63;5076936;28;20733;-73
2023/08/21 08:53:09;;;;;;;4.28;3.40;;;;;;;27.19;100.00;97940.25;5071724;28;20431;-73
2023/08/21 08:55:35;;;;;;;3.78;3.38;;;;;;;27.26;100.00;97939.66;5071713;28;20388;-73
2023/08/21 08:58:01;;;;;;;4.97;3.58;;;;;;;27.26;100.00;97939.66;5071781;28;20877;-73
2023/08/21 09:00:27;;;;;;;4.80;3.72;;;;;;;27.30;100.00;97935.88;5085143;28;20390;-73
2023/08/21 09:02:55;;;;;;;4.20;3.67;;;;;;;27.33;100.00;97943.38;5091758;28;20490;-73
2023/08/21 09:05:21;;;;;;;4.60;3.90;;;;;;;27.34;100.00;97936.78;5091703;28;20443;-73
2023/08/21 09:08:03;;;;;;;4.57;3.55;;;;;;;27.38;100.00;97942.31;5084091;28;20869;-73
2023/08/21 09:10:29;;;;;;;3.90;3.40;;;;;;;27.48;100.00;97941.81;5071318;28;20442;-74
2023/08/21 09:12:57;;;;;;;3.67;3.30;;;;;;;27.62;100.00;97944.16;5071374;28;20873;-74
2023/08/21 09:15:29;;;;;;;3.50;3.20;;;;;;;27.79;100.00;97935.66;5071462;28;20402;-73
2023/08/21 09:17:56;;;;;;;3.70;3.30;;;;;;;27.92;100.00;97926.28;5071400;28;20976;-74
2023/08/21 09:20:22;;;;;;;5.35;3.55;;;;;;;28.07;100.00;97930.13;5083977;28;20486;-73
2023/08/21 09:22:57;;;;;;;3.55;3.10;;;;;;;28.21;100.00;97935.16;5091483;28;20406;-73
2023/08/21 09:25:25;;;;;;;3.80;3.45;;;;;;;28.34;100.00;97933.94;5091443;28;20984;-73
2023/08/21 09:27:55;;;;;;;4.13;3.38;;;;;;;28.45;100.00;97934.94;5091230;28;20401;-74
2023/08/21 09:30:21;;;;;;;3.40;3.08;;;;;;;28.57;100.00;97929.38;5091484;28;20485;-74
2023/08/21 09:32:57;;;;;;;4.10;3.63;;;;;;;28.72;100.00;97931.25;5091493;28;20432;-74
2023/08/21 09:35:24;;;;;;;3.97;3.42;;;;;;;28.87;100.00;97930.44;5091586;28;20410;-73
2023/08/21 09:37:52;;;;;;;3.92;3.00;;;;;;;29.04;100.00;97929.25;5091357;28;20491;-73
2023/08/21 09:40:21;;;;;;;6.43;3.77;;;;;;;29.20;100.00;97935.41;5079106;28;20403;-73
2023/08/21 09:42:53;;;;;;;3.70;3.30;;;;;;;29.35;100.00;97936.50;5071035;28;20426;-74
2023/08/21 09:45:21;;;;;;;4.30;2.92;;;;;;;29.47;100.00;97928.16;5071028;28;20846;-73
2023/08/21 09:47:47;;;;;;;3.20;2.90;;;;;;;29.52;100.00;97930.63;5071056;28;20777;-73
2023/08/21 09:50:14;;;;;;;5.05;3.25;;;;;;;29.58;100.00;97933.81;5073897;28;20887;-73
2023/08/21 09:52:40;;;;;;;4.13;3.22;;;;;;;29.61;100.00;97933.13;5091105;28;20511;-73
2023/08/21 09:55:08;;;;;;;2.90;2.60;;;;;;;29.66;100.00;97923.81;5091114;28;20824;-73
2023/08/21 09:57:36;;;;;;;3.95;2.67;;;;;;;29.72;100.00;97922.38;5089962;28;20402;-74
2023/08/21 10:00:15;;;;;;;3.28;2.97;;;;;;;29.78;100.00;97916.25;5090922;28;20876;-74
2023/08/21 10:02:43;;;;;;;4.65;3.25;;;;;;;29.84;100.00;97922.22;5091186;28;20783;-74
2023/08/21 10:05:10;;;;;;;3.22;2.92;;;;;;;29.88;100.00;97917.59;5090686;28;20418;-74
2023/08/21 10:07:37;;;;;;;3.92;2.90;;;;;;;29.94;100.00;97910.69;5091036;28;20402;-74
2023/08/21 10:10:04;;;;;;;3.78;3.03;;;;;;;30.04;100.00;97914.75;5090716;28;20406;-74
2023/08/21 10:12:30;;;;;;;4.55;3.42;;;;;;;30.15;100.00;97911.03;5090728;28;20413;-73
2023/08/21 10:14:58;;;;;;;4.95;3.13;;;;;;;30.31;100.00;97905.41;5081585;28;20408;-73
2023/08/21 10:17:24;;;;;;;3.93;3.40;;;;;;;30.46;100.00;97909.94;5070534;28;20400;-73
2023/08/21 10:19:53;;;;;;;3.75;3.35;;;;;;;30.62;100.00;97902.38;5086906;28;20431;-73
2023/08/21 10:22:43;;;;;;;3.30;3.00;;;;;;;30.80;100.00;97908.09;5090519;28;20394;-73
2023/08/21 10:25:22;;;;;;;5.45;3.20;;;;;;;30.97;100.00;97899.34;5090573;28;20899;-73
2023/08/21 10:27:51;;;;;;;3.47;3.00;;;;;;;31.12;100.00;97894.84;5090832;28;20952;-73
2023/08/21 10:30:23;;;;;;;9.25;4.60;;;;;;;31.08;100.00;97897.53;5090470;28;20820;-73
2023/08/21 10:32:50;;;;;;;5.45;4.47;;;;;;;31.01;100.00;97888.41;5090491;28;20424;-73
2023/08/21 10:35:21;;;;;;;4.28;3.83;;;;;;;30.79;100.00;97887.38;5070188;28;20804;-73
2023/08/21 10:38:09;;;;;;;5.68;4.18;;;;;;;30.56;100.00;97889.41;5078035;28;20910;-73
2023/08/21 10:40:35;;;;;;;4.82;3.80;;;;;;;30.50;100.00;97885.41;5076165;28;20398;-73
2023/08/21 10:43:02;;;;;;;5.30;3.72;;;;;;;30.56;100.00;97878.47;5081866;28;20494;-73
2023/08/21 10:45:30;;;;;;;4.43;3.80;;;;;;;30.63;100.00;97879.38;5076674;28;20773;-74
2023/08/21 10:47:57;;;;;;;4.00;3.60;;;;;;;30.77;100.00;97885.00;5070119;28;20488;-73
2023/08/21 10:50:24;;;;;;;4.90;3.60;;;;;;;30.95;100.00;97878.97;5070079;28;20450;-73
2023/08/21 10:52:52;;;;;;;4.60;3.88;;;;;;;31.11;100.00;97876.84;5070034;28;20400;-73
2023/08/21 10:55:19;;;;;;;5.20;3.97;;;;;;;31.15;100.00;97881.19;5070110;28;20420;-73
2023/08/21 10:57:47;;;;;;;4.97;4.00;;;;;;;31.18;100.00;97879.66;5070104;28;20406;-73
2023/08/21 11:00:16;;;;;;;5.82;4.25;;;;;;;31.24;100.00;97885.59;5069855;28;20411;-73
2023/08/21 11:02:45;;;;;;;9.63;5.53;;;;;;;31.24;98.88;97877.38;5070062;28;20395;-73
2023/08/21 11:05:13;;;;;;;5.10;4.47;;;;;;;31.25;100.00;97877.00;5070100;28;20422;-73
2023/08/21 11:07:43;;;;;;;5.43;4.10;;;;;;;31.33;99.97;97875.13;5070037;28;20719;-73
2023/08/21 11:10:13;;;;;;;6.80;4.20;;;;;;;31.47;100.00;97873.31;5083579;28;20940;-73
2023/08/21 11:12:48;;;;;;;4.55;3.70;;;;;;;31.73;99.83;97871.63;5094307;28;20437;-73
2023/08/21 11:15:16;;;;;;;4.10;3.70;;;;;;;31.94;98.35;97876.50;5074253;28;20506;-73
2023/08/21 11:17:53;;;;;;;4.65;3.92;;;;;;;31.85;97.59;97876.81;5074132;28;20423;-73
2023/08/21 11:20:20;;;;;;;5.78;3.53;;;;;;;31.57;98.71;97874.59;5073983;28;20395;-73
2023/08/21 11:22:46;;;;;;;9.27;4.55;;;;;;;31.21;100.00;97876.16;5073774;28;20897;-73
2023/08/21 11:25:14;;;;;;;4.10;3.50;;;;;;;30.84;100.00;97875.31;5073758;28;20412;-73